sensor_id;sensor_type;location;lat;lon;timestamp;P1;durP1;ratioP1;P2;durP2;ratioP2
78416;SDS011;67715;46.170;6.140;2023-05-27T00:01:29;11.57;;;6.78;;
78416;SDS011;67715;46.170;6.140;2023-05-27T00:03:55;8.27;;;6.17;;
78416;SDS011;67715;46.170;6.140;2023-05-27T00:06:20;10.43;;;6.63;;
78416;SDS011;67715;46.170;6.140;2023-05-27T00:08:45;8.60;;;6.03;;
78416;SDS011;67715;46.170;6.140;2023-05-27T00:11:11;9.50;;;6.97;;
78416;SDS011;67715;46.170;6.140;2023-05-27T00:13:36;9.80;;;6.67;;
78416;SDS011;67715;46.170;6.140;2023-05-27T00:16:01;9.13;;;6.63;;
78416;SDS011;67715;46.170;6.140;2023-05-27T00:18:27;10.63;;;7.33;;
78416;SDS011;67715;46.170;6.140;2023-05-27T00:20:52;9.73;;;6.53;;
78416;SDS011;67715;46.170;6.140;2023-05-27T00:23:18;10.02;;;6.55;;
78416;SDS011;67715;46.170;6.140;2023-05-27T00:25:43;9.98;;;6.80;;
78416;SDS011;67715;46.170;6.140;2023-05-27T00:28:08;9.80;;;6.47;;
78416;SDS011;67715;46.170;6.140;2023-05-27T00:30:34;9.93;;;6.50;;
78416;SDS011;67715;46.170;6.140;2023-05-27T00:32:59;7.30;;;5.83;;
78416;SDS011;67715;46.170;6.140;2023-05-27T00:35:24;10.23;;;6.80;;
78416;SDS011;67715;46.170;6.140;2023-05-27T00:37:50;9.07;;;6.13;;
78416;SDS011;67715;46.170;6.140;2023-05-27T00:40:16;10.10;;;7.25;;
78416;SDS011;67715;46.170;6.140;2023-05-27T00:42:44;10.23;;;6.63;;
78416;SDS011;67715;46.170;6.140;2023-05-27T00:45:10;9.93;;;5.57;;
78416;SDS011;67715;46.170;6.140;2023-05-27T00:47:36;10.70;;;6.45;;
78416;SDS011;67715;46.170;6.140;2023-05-27T00:50:02;9.73;;;7.33;;
78416;SDS011;67715;46.170;6.140;2023-05-27T00:52:28;9.65;;;6.47;;
78416;SDS011;67715;46.170;6.140;2023-05-27T00:54:54;11.07;;;6.28;;
78416;SDS011;67715;46.170;6.140;2023-05-27T00:57:21;12.50;;;7.25;;
78416;SDS011;67715;46.170;6.140;2023-05-27T00:59:46;11.13;;;6.50;;
78416;SDS011;67715;46.170;6.140;2023-05-27T01:02:11;10.30;;;6.83;;
78416;SDS011;67715;46.170;6.140;2023-05-27T01:04:37;8.87;;;6.27;;
78416;SDS011;67715;46.170;6.140;2023-05-27T01:07:17;9.23;;;6.23;;
78416;SDS011;67715;46.170;6.140;2023-05-27T01:12:44;10.48;;;7.43;;
78416;SDS011;67715;46.170;6.140;2023-05-27T01:15:14;11.27;;;7.03;;
78416;SDS011;67715;46.170;6.140;2023-05-27T01:17:40;10.20;;;6.32;;
78416;SDS011;67715;46.170;6.140;2023-05-27T01:20:08;13.35;;;7.43;;
78416;SDS011;67715;46.170;6.140;2023-05-27T01:22:35;10.70;;;7.07;;
78416;SDS011;67715;46.170;6.140;2023-05-27T01:25:01;8.98;;;6.70;;
78416;SDS011;67715;46.170;6.140;2023-05-27T01:27:27;12.20;;;7.65;;
78416;SDS011;67715;46.170;6.140;2023-05-27T01:29:53;10.00;;;6.90;;
78416;SDS011;67715;46.170;6.140;2023-05-27T01:32:21;9.88;;;6.40;;
78416;SDS011;67715;46.170;6.140;2023-05-27T01:35:08;10.57;;;6.60;;
78416;SDS011;67715;46.170;6.140;2023-05-27T01:37:36;10.32;;;6.50;;
78416;SDS011;67715;46.170;6.140;2023-05-27T01:40:04;10.18;;;7.28;;
78416;SDS011;67715;46.170;6.140;2023-05-27T01:42:31;10.30;;;7.07;;
78416;SDS011;67715;46.170;6.140;2023-05-27T01:44:58;10.88;;;7.28;;
78416;SDS011;67715;46.170;6.140;2023-05-27T01:47:25;9.30;;;7.03;;
78416;SDS011;67715;46.170;6.140;2023-05-27T01:49:50;10.80;;;7.07;;
78416;SDS011;67715;46.170;6.140;2023-05-27T01:52:16;13.50;;;6.93;;
78416;SDS011;67715;46.170;6.140;2023-05-27T01:54:41;9.13;;;6.10;;
78416;SDS011;67715;46.170;6.140;2023-05-27T01:57:06;9.20;;;6.37;;
78416;SDS011;67715;46.170;6.140;2023-05-27T01:59:32;10.10;;;7.07;;
78416;SDS011;67715;46.170;6.140;2023-05-27T02:01:57;9.73;;;6.80;;
78416;SDS011;67715;46.170;6.140;2023-05-27T02:04:22;17.43;;;6.80;;
78416;SDS011;67715;46.170;6.140;2023-05-27T02:06:47;11.20;;;7.47;;
78416;SDS011;67715;46.170;6.140;2023-05-27T02:09:13;11.00;;;6.93;;
78416;SDS011;67715;46.170;6.140;2023-05-27T02:11:38;11.20;;;7.27;;
78416;SDS011;67715;46.170;6.140;2023-05-27T02:14:03;9.23;;;7.20;;
78416;SDS011;67715;46.170;6.140;2023-05-27T02:16:30;12.30;;;7.75;;
78416;SDS011;67715;46.170;6.140;2023-05-27T02:18:59;9.85;;;7.15;;
78416;SDS011;67715;46.170;6.140;2023-05-27T02:21:27;9.90;;;6.82;;
78416;SDS011;67715;46.170;6.140;2023-05-27T02:23:52;10.40;;;6.55;;
78416;SDS011;67715;46.170;6.140;2023-05-27T02:26:18;11.03;;;7.20;;
78416;SDS011;67715;46.170;6.140;2023-05-27T02:28:43;11.60;;;6.85;;
78416;SDS011;67715;46.170;6.140;2023-05-27T02:31:08;11.30;;;7.60;;
78416;SDS011;67715;46.170;6.140;2023-05-27T02:33:34;11.07;;;7.40;;
78416;SDS011;67715;46.170;6.140;2023-05-27T02:35:59;10.93;;;7.17;;
78416;SDS011;67715;46.170;6.140;2023-05-27T02:38:24;9.40;;;6.38;;
78416;SDS011;67715;46.170;6.140;2023-05-27T02:40:50;15.45;;;6.93;;
78416;SDS011;67715;46.170;6.140;2023-05-27T02:43:15;11.10;;;7.30;;
78416;SDS011;67715;46.170;6.140;2023-05-27T02:45:41;13.27;;;7.82;;
78416;SDS011;67715;46.170;6.140;2023-05-27T02:48:07;10.45;;;6.55;;
78416;SDS011;67715;46.170;6.140;2023-05-27T02:50:32;14.18;;;7.47;;
78416;SDS011;67715;46.170;6.140;2023-05-27T02:52:57;11.20;;;6.67;;
78416;SDS011;67715;46.170;6.140;2023-05-27T02:55:23;9.33;;;6.47;;
78416;SDS011;67715;46.170;6.140;2023-05-27T02:57:48;10.07;;;7.17;;
78416;SDS011;67715;46.170;6.140;2023-05-27T03:00:13;12.83;;;8.03;;
78416;SDS011;67715;46.170;6.140;2023-05-27T03:02:39;9.68;;;7.13;;
78416;SDS011;67715;46.170;6.140;2023-05-27T03:05:05;13.27;;;7.60;;
78416;SDS011;67715;46.170;6.140;2023-05-27T03:07:30;11.35;;;7.30;;
78416;SDS011;67715;46.170;6.140;2023-05-27T03:09:55;10.27;;;6.80;;
78416;SDS011;67715;46.170;6.140;2023-05-27T03:12:21;12.07;;;9.23;;
78416;SDS011;67715;46.170;6.140;2023-05-27T03:14:47;12.40;;;7.88;;
78416;SDS011;67715;46.170;6.140;2023-05-27T03:17:13;11.55;;;7.55;;
78416;SDS011;67715;46.170;6.140;2023-05-27T03:19:38;11.50;;;7.20;;
78416;SDS011;67715;46.170;6.140;2023-05-27T03:22:04;11.60;;;7.45;;
78416;SDS011;67715;46.170;6.140;2023-05-27T03:24:31;11.07;;;6.88;;
78416;SDS011;67715;46.170;6.140;2023-05-27T03:26:57;12.05;;;7.45;;
78416;SDS011;67715;46.170;6.140;2023-05-27T03:29:22;11.63;;;7.53;;
78416;SDS011;67715;46.170;6.140;2023-05-27T03:31:47;9.17;;;6.33;;
78416;SDS011;67715;46.170;6.140;2023-05-27T03:34:13;11.27;;;7.35;;
78416;SDS011;67715;46.170;6.140;2023-05-27T03:36:39;10.55;;;7.00;;
78416;SDS011;67715;46.170;6.140;2023-05-27T03:39:04;10.52;;;7.07;;
78416;SDS011;67715;46.170;6.140;2023-05-27T03:41:31;9.10;;;6.55;;
78416;SDS011;67715;46.170;6.140;2023-05-27T03:43:56;10.55;;;6.90;;
78416;SDS011;67715;46.170;6.140;2023-05-27T03:46:21;12.23;;;7.82;;
78416;SDS011;67715;46.170;6.140;2023-05-27T03:48:47;12.83;;;8.10;;
78416;SDS011;67715;46.170;6.140;2023-05-27T03:51:12;12.00;;;7.50;;
78416;SDS011;67715;46.170;6.140;2023-05-27T03:53:37;9.93;;;6.97;;
78416;SDS011;67715;46.170;6.140;2023-05-27T03:56:03;10.20;;;6.90;;
78416;SDS011;67715;46.170;6.140;2023-05-27T03:58:28;12.60;;;7.68;;
78416;SDS011;67715;46.170;6.140;2023-05-27T04:00:54;9.82;;;6.75;;
78416;SDS011;67715;46.170;6.140;2023-05-27T04:03:20;12.70;;;8.13;;
78416;SDS011;67715;46.170;6.140;2023-05-27T04:05:45;12.27;;;6.90;;
78416;SDS011;67715;46.170;6.140;2023-05-27T04:08:10;11.95;;;7.70;;
78416;SDS011;67715;46.170;6.140;2023-05-27T04:10:38;15.18;;;9.20;;
78416;SDS011;67715;46.170;6.140;2023-05-27T04:13:03;10.82;;;6.57;;
78416;SDS011;67715;46.170;6.140;2023-05-27T04:15:29;9.63;;;5.87;;
78416;SDS011;67715;46.170;6.140;2023-05-27T04:17:54;13.63;;;7.17;;
78416;SDS011;67715;46.170;6.140;2023-05-27T04:20:19;9.00;;;6.73;;
78416;SDS011;67715;46.170;6.140;2023-05-27T04:22:45;15.93;;;7.60;;
78416;SDS011;67715;46.170;6.140;2023-05-27T04:25:10;9.23;;;6.13;;
78416;SDS011;67715;46.170;6.140;2023-05-27T04:27:35;10.97;;;7.97;;
78416;SDS011;67715;46.170;6.140;2023-05-27T04:30:01;10.32;;;6.80;;
78416;SDS011;67715;46.170;6.140;2023-05-27T04:32:28;10.25;;;6.70;;
78416;SDS011;67715;46.170;6.140;2023-05-27T04:34:57;11.93;;;7.78;;
78416;SDS011;67715;46.170;6.140;2023-05-27T04:37:24;9.77;;;6.35;;
78416;SDS011;67715;46.170;6.140;2023-05-27T04:39:52;12.95;;;7.63;;
78416;SDS011;67715;46.170;6.140;2023-05-27T04:42:18;11.07;;;7.30;;
78416;SDS011;67715;46.170;6.140;2023-05-27T04:44:44;13.43;;;7.35;;
78416;SDS011;67715;46.170;6.140;2023-05-27T04:47:10;15.03;;;8.47;;
78416;SDS011;67715;46.170;6.140;2023-05-27T04:49:35;10.20;;;7.28;;
78416;SDS011;67715;46.170;6.140;2023-05-27T04:52:01;12.17;;;8.23;;
78416;SDS011;67715;46.170;6.140;2023-05-27T04:54:26;11.97;;;8.63;;
78416;SDS011;67715;46.170;6.140;2023-05-27T04:56:51;13.00;;;7.10;;
78416;SDS011;67715;46.170;6.140;2023-05-27T04:59:17;11.60;;;8.40;;
78416;SDS011;67715;46.170;6.140;2023-05-27T05:01:45;10.45;;;7.07;;
78416;SDS011;67715;46.170;6.140;2023-05-27T05:04:29;9.20;;;7.35;;
78416;SDS011;67715;46.170;6.140;2023-05-27T05:06:55;9.40;;;7.05;;
78416;SDS011;67715;46.170;6.140;2023-05-27T05:09:20;11.18;;;7.53;;
78416;SDS011;67715;46.170;6.140;2023-05-27T05:11:46;12.65;;;8.00;;
78416;SDS011;67715;46.170;6.140;2023-05-27T05:14:11;8.97;;;6.33;;
78416;SDS011;67715;46.170;6.140;2023-05-27T05:16:36;11.13;;;6.87;;
78416;SDS011;67715;46.170;6.140;2023-05-27T05:19:02;10.97;;;7.70;;
78416;SDS011;67715;46.170;6.140;2023-05-27T05:21:27;13.93;;;7.80;;
78416;SDS011;67715;46.170;6.140;2023-05-27T05:23:52;11.38;;;7.85;;
78416;SDS011;67715;46.170;6.140;2023-05-27T05:26:18;11.43;;;7.90;;
78416;SDS011;67715;46.170;6.140;2023-05-27T05:28:43;11.38;;;7.25;;
78416;SDS011;67715;46.170;6.140;2023-05-27T05:31:09;15.03;;;6.90;;
78416;SDS011;67715;46.170;6.140;2023-05-27T05:33:34;9.07;;;6.40;;
78416;SDS011;67715;46.170;6.140;2023-05-27T05:36:00;10.20;;;6.78;;
78416;SDS011;67715;46.170;6.140;2023-05-27T05:38:26;12.77;;;6.80;;
78416;SDS011;67715;46.170;6.140;2023-05-27T05:40:52;11.55;;;6.55;;
78416;SDS011;67715;46.170;6.140;2023-05-27T05:43:19;12.07;;;7.38;;
78416;SDS011;67715;46.170;6.140;2023-05-27T05:45:45;10.13;;;6.72;;
78416;SDS011;67715;46.170;6.140;2023-05-27T05:48:10;11.93;;;7.32;;
78416;SDS011;67715;46.170;6.140;2023-05-27T05:50:35;10.90;;;7.50;;
78416;SDS011;67715;46.170;6.140;2023-05-27T05:53:01;11.13;;;7.18;;
78416;SDS011;67715;46.170;6.140;2023-05-27T05:55:26;11.00;;;6.90;;
78416;SDS011;67715;46.170;6.140;2023-05-27T05:57:51;14.13;;;7.10;;
78416;SDS011;67715;46.170;6.140;2023-05-27T06:00:17;12.57;;;7.23;;
78416;SDS011;67715;46.170;6.140;2023-05-27T06:02:43;14.18;;;7.43;;
78416;SDS011;67715;46.170;6.140;2023-05-27T06:05:08;10.33;;;7.20;;
78416;SDS011;67715;46.170;6.140;2023-05-27T06:07:34;9.05;;;6.72;;
78416;SDS011;67715;46.170;6.140;2023-05-27T06:09:59;10.90;;;6.73;;
78416;SDS011;67715;46.170;6.140;2023-05-27T06:12:24;11.37;;;7.23;;
78416;SDS011;67715;46.170;6.140;2023-05-27T06:14:50;13.18;;;6.43;;
78416;SDS011;67715;46.170;6.140;2023-05-27T06:17:15;10.10;;;6.50;;
78416;SDS011;67715;46.170;6.140;2023-05-27T06:19:40;10.67;;;6.53;;
78416;SDS011;67715;46.170;6.140;2023-05-27T06:22:06;11.73;;;7.27;;
78416;SDS011;67715;46.170;6.140;2023-05-27T06:24:31;11.13;;;7.30;;
78416;SDS011;67715;46.170;6.140;2023-05-27T06:26:57;9.55;;;6.60;;
78416;SDS011;67715;46.170;6.140;2023-05-27T06:29:22;11.30;;;6.93;;
78416;SDS011;67715;46.170;6.140;2023-05-27T06:31:47;11.13;;;6.83;;
78416;SDS011;67715;46.170;6.140;2023-05-27T06:34:13;8.68;;;5.82;;
78416;SDS011;67715;46.170;6.140;2023-05-27T06:36:38;10.80;;;6.43;;
78416;SDS011;67715;46.170;6.140;2023-05-27T06:39:04;8.70;;;6.23;;
78416;SDS011;67715;46.170;6.140;2023-05-27T06:41:29;9.73;;;6.25;;
78416;SDS011;67715;46.170;6.140;2023-05-27T06:43:55;12.40;;;6.65;;
78416;SDS011;67715;46.170;6.140;2023-05-27T06:46:20;10.27;;;6.23;;
78416;SDS011;67715;46.170;6.140;2023-05-27T06:48:46;12.63;;;6.60;;
78416;SDS011;67715;46.170;6.140;2023-05-27T06:51:11;12.43;;;7.23;;
78416;SDS011;67715;46.170;6.140;2023-05-27T06:53:36;8.97;;;6.70;;
78416;SDS011;67715;46.170;6.140;2023-05-27T06:56:02;10.17;;;6.97;;
78416;SDS011;67715;46.170;6.140;2023-05-27T06:58:27;10.70;;;7.43;;
78416;SDS011;67715;46.170;6.140;2023-05-27T07:00:52;12.93;;;6.17;;
78416;SDS011;67715;46.170;6.140;2023-05-27T07:03:18;10.77;;;6.87;;
78416;SDS011;67715;46.170;6.140;2023-05-27T07:05:43;11.37;;;6.90;;
78416;SDS011;67715;46.170;6.140;2023-05-27T07:08:08;10.90;;;7.25;;
78416;SDS011;67715;46.170;6.140;2023-05-27T07:10:34;11.47;;;6.33;;
78416;SDS011;67715;46.170;6.140;2023-05-27T07:12:59;14.30;;;7.80;;
78416;SDS011;67715;46.170;6.140;2023-05-27T07:15:25;9.90;;;7.00;;
78416;SDS011;67715;46.170;6.140;2023-05-27T07:17:52;12.27;;;7.13;;
78416;SDS011;67715;46.170;6.140;2023-05-27T07:20:17;10.40;;;6.80;;
78416;SDS011;67715;46.170;6.140;2023-05-27T07:22:42;10.48;;;7.00;;
78416;SDS011;67715;46.170;6.140;2023-05-27T07:25:08;9.93;;;6.60;;
78416;SDS011;67715;46.170;6.140;2023-05-27T07:27:33;10.57;;;7.40;;
78416;SDS011;67715;46.170;6.140;2023-05-27T07:29:59;10.23;;;6.57;;
78416;SDS011;67715;46.170;6.140;2023-05-27T07:32:24;9.82;;;6.15;;
78416;SDS011;67715;46.170;6.140;2023-05-27T07:34:50;13.48;;;6.70;;
78416;SDS011;67715;46.170;6.140;2023-05-27T07:37:15;14.00;;;7.40;;
78416;SDS011;67715;46.170;6.140;2023-05-27T07:39:40;10.77;;;6.43;;
78416;SDS011;67715;46.170;6.140;2023-05-27T07:42:06;9.73;;;6.63;;
78416;SDS011;67715;46.170;6.140;2023-05-27T07:44:31;13.00;;;7.20;;
78416;SDS011;67715;46.170;6.140;2023-05-27T07:46:56;9.40;;;6.47;;
78416;SDS011;67715;46.170;6.140;2023-05-27T07:49:22;12.05;;;7.45;;
78416;SDS011;67715;46.170;6.140;2023-05-27T07:51:49;10.95;;;7.25;;
78416;SDS011;67715;46.170;6.140;2023-05-27T07:54:15;11.57;;;7.20;;
78416;SDS011;67715;46.170;6.140;2023-05-27T07:56:40;11.43;;;7.43;;
78416;SDS011;67715;46.170;6.140;2023-05-27T07:59:05;9.20;;;6.77;;
78416;SDS011;67715;46.170;6.140;2023-05-27T08:01:31;15.80;;;8.33;;
78416;SDS011;67715;46.170;6.140;2023-05-27T08:03:57;10.35;;;7.25;;
78416;SDS011;67715;46.170;6.140;2023-05-27T08:06:24;10.63;;;7.47;;
78416;SDS011;67715;46.170;6.140;2023-05-27T08:08:49;10.75;;;7.13;;
78416;SDS011;67715;46.170;6.140;2023-05-27T08:11:15;9.50;;;6.67;;
78416;SDS011;67715;46.170;6.140;2023-05-27T08:13:40;12.80;;;7.50;;
78416;SDS011;67715;46.170;6.140;2023-05-27T08:16:05;16.45;;;7.30;;
78416;SDS011;67715;46.170;6.140;2023-05-27T08:18:31;10.75;;;6.93;;
78416;SDS011;67715;46.170;6.140;2023-05-27T08:20:57;10.53;;;6.30;;
78416;SDS011;67715;46.170;6.140;2023-05-27T08:23:22;11.67;;;6.67;;
78416;SDS011;67715;46.170;6.140;2023-05-27T08:25:47;9.63;;;6.63;;
78416;SDS011;67715;46.170;6.140;2023-05-27T08:28:13;10.03;;;6.70;;
78416;SDS011;67715;46.170;6.140;2023-05-27T08:30:38;10.57;;;7.05;;
78416;SDS011;67715;46.170;6.140;2023-05-27T08:33:04;11.38;;;7.45;;
78416;SDS011;67715;46.170;6.140;2023-05-27T08:35:30;9.52;;;7.05;;
78416;SDS011;67715;46.170;6.140;2023-05-27T08:37:55;11.07;;;7.10;;
78416;SDS011;67715;46.170;6.140;2023-05-27T08:40:20;10.13;;;7.20;;
78416;SDS011;67715;46.170;6.140;2023-05-27T08:42:46;8.17;;;6.47;;
78416;SDS011;67715;46.170;6.140;2023-05-27T08:45:13;15.27;;;6.68;;
78416;SDS011;67715;46.170;6.140;2023-05-27T08:47:38;15.18;;;6.93;;
78416;SDS011;67715;46.170;6.140;2023-05-27T08:50:04;8.85;;;7.03;;
78416;SDS011;67715;46.170;6.140;2023-05-27T08:52:30;11.30;;;6.45;;
78416;SDS011;67715;46.170;6.140;2023-05-27T08:54:56;10.27;;;7.30;;
78416;SDS011;67715;46.170;6.140;2023-05-27T08:57:24;8.93;;;6.43;;
78416;SDS011;67715;46.170;6.140;2023-05-27T08:59:56;15.77;;;8.25;;
78416;SDS011;67715;46.170;6.140;2023-05-27T09:02:21;13.27;;;8.13;;
78416;SDS011;67715;46.170;6.140;2023-05-27T09:04:47;11.23;;;7.20;;
78416;SDS011;67715;46.170;6.140;2023-05-27T09:07:12;11.35;;;6.43;;
78416;SDS011;67715;46.170;6.140;2023-05-27T09:09:38;11.20;;;6.65;;
78416;SDS011;67715;46.170;6.140;2023-05-27T09:12:04;14.50;;;6.55;;
78416;SDS011;67715;46.170;6.140;2023-05-27T09:14:31;12.73;;;7.18;;
78416;SDS011;67715;46.170;6.140;2023-05-27T09:16:56;12.05;;;7.03;;
78416;SDS011;67715;46.170;6.140;2023-05-27T09:19:22;9.32;;;7.15;;
78416;SDS011;67715;46.170;6.140;2023-05-27T09:21:51;10.85;;;6.95;;
78416;SDS011;67715;46.170;6.140;2023-05-27T09:24:17;10.27;;;6.60;;
78416;SDS011;67715;46.170;6.140;2023-05-27T09:26:43;9.03;;;6.80;;
78416;SDS011;67715;46.170;6.140;2023-05-27T09:29:08;10.13;;;6.53;;
78416;SDS011;67715;46.170;6.140;2023-05-27T09:31:40;13.18;;;6.78;;
78416;SDS011;67715;46.170;6.140;2023-05-27T09:34:09;10.52;;;6.82;;
78416;SDS011;67715;46.170;6.140;2023-05-27T09:36:47;10.50;;;5.90;;
78416;SDS011;67715;46.170;6.140;2023-05-27T09:39:14;8.32;;;6.07;;
78416;SDS011;67715;46.170;6.140;2023-05-27T09:41:41;9.25;;;6.40;;
78416;SDS011;67715;46.170;6.140;2023-05-27T09:44:07;11.63;;;6.50;;
78416;SDS011;67715;46.170;6.140;2023-05-27T09:46:33;11.55;;;7.05;;
78416;SDS011;67715;46.170;6.140;2023-05-27T09:48:59;11.05;;;6.75;;
78416;SDS011;67715;46.170;6.140;2023-05-27T09:51:28;9.50;;;6.75;;
78416;SDS011;67715;46.170;6.140;2023-05-27T09:53:53;10.07;;;6.82;;
78416;SDS011;67715;46.170;6.140;2023-05-27T09:56:26;9.55;;;6.03;;
78416;SDS011;67715;46.170;6.140;2023-05-27T09:58:55;11.02;;;6.85;;
78416;SDS011;67715;46.170;6.140;2023-05-27T10:01:21;9.05;;;6.43;;
78416;SDS011;67715;46.170;6.140;2023-05-27T10:03:56;8.10;;;5.93;;
78416;SDS011;67715;46.170;6.140;2023-05-27T10:06:22;9.40;;;6.73;;
78416;SDS011;67715;46.170;6.140;2023-05-27T10:08:57;10.73;;;6.40;;
78416;SDS011;67715;46.170;6.140;2023-05-27T10:11:22;10.48;;;7.10;;
78416;SDS011;67715;46.170;6.140;2023-05-27T10:13:48;8.45;;;6.13;;
78416;SDS011;67715;46.170;6.140;2023-05-27T10:16:25;7.80;;;5.80;;
78416;SDS011;67715;46.170;6.140;2023-05-27T10:18:55;8.35;;;6.20;;
78416;SDS011;67715;46.170;6.140;2023-05-27T10:21:26;11.20;;;6.65;;
78416;SDS011;67715;46.170;6.140;2023-05-27T10:23:56;8.50;;;5.90;;
78416;SDS011;67715;46.170;6.140;2023-05-27T10:26:32;9.93;;;6.35;;
78416;SDS011;67715;46.170;6.140;2023-05-27T10:31:50;6.85;;;5.50;;
78416;SDS011;67715;46.170;6.140;2023-05-27T10:34:16;9.85;;;5.30;;
78416;SDS011;67715;46.170;6.140;2023-05-27T10:36:43;8.85;;;5.80;;
78416;SDS011;67715;46.170;6.140;2023-05-27T10:39:15;9.00;;;5.72;;
78416;SDS011;67715;46.170;6.140;2023-05-27T10:41:42;8.23;;;5.40;;
78416;SDS011;67715;46.170;6.140;2023-05-27T10:44:09;10.13;;;5.97;;
78416;SDS011;67715;46.170;6.140;2023-05-27T10:46:38;9.32;;;5.43;;
78416;SDS011;67715;46.170;6.140;2023-05-27T10:49:16;7.90;;;5.88;;
78416;SDS011;67715;46.170;6.140;2023-05-27T10:51:47;7.68;;;5.97;;
78416;SDS011;67715;46.170;6.140;2023-05-27T10:54:13;11.23;;;5.82;;
78416;SDS011;67715;46.170;6.140;2023-05-27T10:56:49;9.95;;;6.70;;
78416;SDS011;67715;46.170;6.140;2023-05-27T10:59:19;8.45;;;5.22;;
78416;SDS011;67715;46.170;6.140;2023-05-27T11:01:47;7.40;;;5.78;;
78416;SDS011;67715;46.170;6.140;2023-05-27T11:04:16;9.52;;;5.68;;
78416;SDS011;67715;46.170;6.140;2023-05-27T11:06:41;6.73;;;5.10;;
78416;SDS011;67715;46.170;6.140;2023-05-27T11:09:07;8.75;;;5.18;;
78416;SDS011;67715;46.170;6.140;2023-05-27T11:11:32;9.48;;;6.13;;
78416;SDS011;67715;46.170;6.140;2023-05-27T11:13:59;6.97;;;5.95;;
78416;SDS011;67715;46.170;6.140;2023-05-27T11:16:24;8.63;;;6.30;;
78416;SDS011;67715;46.170;6.140;2023-05-27T11:18:49;8.77;;;5.83;;
78416;SDS011;67715;46.170;6.140;2023-05-27T11:21:15;8.77;;;6.07;;
78416;SDS011;67715;46.170;6.140;2023-05-27T11:23:42;8.68;;;5.85;;
78416;SDS011;67715;46.170;6.140;2023-05-27T11:26:18;9.73;;;6.50;;
78416;SDS011;67715;46.170;6.140;2023-05-27T11:28:45;9.98;;;6.38;;
78416;SDS011;67715;46.170;6.140;2023-05-27T11:31:11;6.43;;;5.68;;
78416;SDS011;67715;46.170;6.140;2023-05-27T11:33:39;11.70;;;6.22;;
78416;SDS011;67715;46.170;6.140;2023-05-27T11:36:06;10.50;;;6.30;;
78416;SDS011;67715;46.170;6.140;2023-05-27T11:38:44;8.48;;;5.55;;
78416;SDS011;67715;46.170;6.140;2023-05-27T11:41:16;6.45;;;5.03;;
78416;SDS011;67715;46.170;6.140;2023-05-27T11:46:20;7.85;;;6.18;;
78416;SDS011;67715;46.170;6.140;2023-05-27T11:48:45;9.10;;;5.50;;
78416;SDS011;67715;46.170;6.140;2023-05-27T11:51:11;9.85;;;6.05;;
78416;SDS011;67715;46.170;6.140;2023-05-27T11:53:40;9.00;;;5.38;;
78416;SDS011;67715;46.170;6.140;2023-05-27T11:56:09;8.95;;;5.57;;
78416;SDS011;67715;46.170;6.140;2023-05-27T11:58:34;9.35;;;6.43;;
78416;SDS011;67715;46.170;6.140;2023-05-27T12:01:01;9.75;;;5.57;;
78416;SDS011;67715;46.170;6.140;2023-05-27T12:03:27;9.50;;;5.80;;
78416;SDS011;67715;46.170;6.140;2023-05-27T12:05:52;7.53;;;5.78;;
78416;SDS011;67715;46.170;6.140;2023-05-27T12:08:17;8.00;;;5.60;;
78416;SDS011;67715;46.170;6.140;2023-05-27T12:10:42;9.80;;;5.57;;
78416;SDS011;67715;46.170;6.140;2023-05-27T12:13:09;9.05;;;6.05;;
78416;SDS011;67715;46.170;6.140;2023-05-27T12:15:35;11.40;;;5.93;;
78416;SDS011;67715;46.170;6.140;2023-05-27T12:18:00;11.10;;;6.77;;
78416;SDS011;67715;46.170;6.140;2023-05-27T12:20:25;8.48;;;6.18;;
78416;SDS011;67715;46.170;6.140;2023-05-27T12:22:52;8.68;;;6.30;;
78416;SDS011;67715;46.170;6.140;2023-05-27T12:25:18;8.93;;;5.95;;
78416;SDS011;67715;46.170;6.140;2023-05-27T12:27:44;7.90;;;5.63;;
78416;SDS011;67715;46.170;6.140;2023-05-27T12:30:09;9.15;;;5.45;;
78416;SDS011;67715;46.170;6.140;2023-05-27T12:32:35;8.15;;;5.72;;
78416;SDS011;67715;46.170;6.140;2023-05-27T12:35:00;9.60;;;5.47;;
78416;SDS011;67715;46.170;6.140;2023-05-27T12:37:26;9.60;;;6.00;;
78416;SDS011;67715;46.170;6.140;2023-05-27T12:39:52;6.85;;;5.32;;
78416;SDS011;67715;46.170;6.140;2023-05-27T12:42:18;9.48;;;5.88;;
78416;SDS011;67715;46.170;6.140;2023-05-27T12:44:43;6.47;;;5.00;;
78416;SDS011;67715;46.170;6.140;2023-05-27T12:47:08;9.23;;;5.30;;
78416;SDS011;67715;46.170;6.140;2023-05-27T12:49:35;5.38;;;4.50;;
78416;SDS011;67715;46.170;6.140;2023-05-27T12:52:01;5.82;;;4.47;;
78416;SDS011;67715;46.170;6.140;2023-05-27T12:54:28;11.38;;;5.05;;
78416;SDS011;67715;46.170;6.140;2023-05-27T12:56:53;6.77;;;5.37;;
78416;SDS011;67715;46.170;6.140;2023-05-27T12:59:18;9.10;;;5.10;;
78416;SDS011;67715;46.170;6.140;2023-05-27T13:01:43;7.03;;;5.00;;
78416;SDS011;67715;46.170;6.140;2023-05-27T13:04:09;4.97;;;4.30;;
78416;SDS011;67715;46.170;6.140;2023-05-27T13:06:34;8.87;;;5.17;;
78416;SDS011;67715;46.170;6.140;2023-05-27T13:08:59;10.00;;;5.55;;
78416;SDS011;67715;46.170;6.140;2023-05-27T13:11:25;5.97;;;4.63;;
78416;SDS011;67715;46.170;6.140;2023-05-27T13:13:51;7.85;;;5.20;;
78416;SDS011;67715;46.170;6.140;2023-05-27T13:16:16;6.73;;;4.47;;
78416;SDS011;67715;46.170;6.140;2023-05-27T13:18:41;6.22;;;4.65;;
78416;SDS011;67715;46.170;6.140;2023-05-27T13:21:07;9.63;;;5.93;;
78416;SDS011;67715;46.170;6.140;2023-05-27T13:23:32;8.30;;;5.45;;
78416;SDS011;67715;46.170;6.140;2023-05-27T13:25:58;5.83;;;4.63;;
78416;SDS011;67715;46.170;6.140;2023-05-27T13:28:23;7.43;;;4.90;;
78416;SDS011;67715;46.170;6.140;2023-05-27T13:30:49;7.40;;;5.30;;
78416;SDS011;67715;46.170;6.140;2023-05-27T13:33:14;7.73;;;5.10;;
78416;SDS011;67715;46.170;6.140;2023-05-27T13:35:40;8.73;;;4.93;;
78416;SDS011;67715;46.170;6.140;2023-05-27T13:38:06;7.78;;;5.28;;
78416;SDS011;67715;46.170;6.140;2023-05-27T13:40:37;7.75;;;5.90;;
78416;SDS011;67715;46.170;6.140;2023-05-27T13:43:02;6.57;;;4.97;;
78416;SDS011;67715;46.170;6.140;2023-05-27T13:45:27;9.10;;;6.20;;
78416;SDS011;67715;46.170;6.140;2023-05-27T13:47:53;8.07;;;5.63;;
78416;SDS011;67715;46.170;6.140;2023-05-27T13:50:18;8.73;;;4.95;;
78416;SDS011;67715;46.170;6.140;2023-05-27T13:52:44;6.55;;;5.03;;
78416;SDS011;67715;46.170;6.140;2023-05-27T13:55:10;7.07;;;4.75;;
78416;SDS011;67715;46.170;6.140;2023-05-27T13:57:36;8.73;;;5.10;;
78416;SDS011;67715;46.170;6.140;2023-05-27T14:00:03;8.75;;;4.97;;
78416;SDS011;67715;46.170;6.140;2023-05-27T14:02:28;7.85;;;5.50;;
78416;SDS011;67715;46.170;6.140;2023-05-27T14:04:54;5.38;;;4.20;;
78416;SDS011;67715;46.170;6.140;2023-05-27T14:07:20;7.03;;;5.10;;
78416;SDS011;67715;46.170;6.140;2023-05-27T14:09:45;8.43;;;4.72;;
78416;SDS011;67715;46.170;6.140;2023-05-27T14:12:11;6.63;;;4.63;;
78416;SDS011;67715;46.170;6.140;2023-05-27T14:14:36;5.50;;;4.27;;
78416;SDS011;67715;46.170;6.140;2023-05-27T14:17:01;6.77;;;4.37;;
78416;SDS011;67715;46.170;6.140;2023-05-27T14:19:27;9.20;;;4.60;;
78416;SDS011;67715;46.170;6.140;2023-05-27T14:21:52;8.63;;;5.07;;
78416;SDS011;67715;46.170;6.140;2023-05-27T14:24:18;14.82;;;5.18;;
78416;SDS011;67715;46.170;6.140;2023-05-27T14:26:43;7.22;;;5.13;;
78416;SDS011;67715;46.170;6.140;2023-05-27T14:29:09;10.07;;;5.47;;
78416;SDS011;67715;46.170;6.140;2023-05-27T14:31:34;9.40;;;5.40;;
78416;SDS011;67715;46.170;6.140;2023-05-27T14:33:59;8.77;;;5.43;;
78416;SDS011;67715;46.170;6.140;2023-05-27T14:36:25;13.30;;;5.20;;
78416;SDS011;67715;46.170;6.140;2023-05-27T14:38:50;11.43;;;5.07;;
78416;SDS011;67715;46.170;6.140;2023-05-27T14:41:16;12.73;;;5.05;;
78416;SDS011;67715;46.170;6.140;2023-05-27T14:43:41;8.15;;;4.70;;